Terminal Aerodrome Forecast
Issued by NWS Sterling, VA

Current Version | Previous Version | Text Only | Print | Product List | Glossary On
Versions: 1 2 3 4 5 6 7 8 9 10 11 12 13 14 15 16 17 18 19 20 21 22 23 24
742
FTUS41 KLWX 162340
TAFIAD
TAF
KIAD 162340Z 1700/1806 11004KT P6SM FEW045 SCT150
     FM170700 00000KT 3SM BR FEW045 SCT200
     FM170900 00000KT 2SM BR FEW040 SCT140
     FM171200 00000KT 2SM BR BKN035 BKN040
     FM171500 05004KT P6SM SCT040 BKN150
     FM171800 08005KT P6SM FEW045 SCT060=

USA.gov is the U.S. government's official web portal to all federal, state and local government web resources and services.